Time;durP1;ratioP1;P1;durP2;ratioP2;P2;SDS_P1;SDS_P2;PMS_P1;PMS_P2;Temp;Humidity;BMP_temperature;BMP_pressure;BME280_temperature;BME280_humidity;BME280_pressure;Samples;Min_cycle;Max_cycle;Signal;HPM_P1;HPM_P2
2021/12/07 00:01:23;;;;;;;21.65;8.85;;;;;;;-4.52;100.00;98486.22;4410020;32;20043;-70
2021/12/07 00:03:50;;;;;;;10.38;5.57;;;;;;;-4.34;100.00;98527.25;4406110;32;20454;-70
2021/12/07 00:06:17;;;;;;;22.70;9.32;;;;;;;-4.39;100.00;98520.72;4413829;32;20068;-70
2021/12/07 00:08:45;;;;;;;10.20;5.50;;;;;;;-4.36;100.00;98523.97;4407008;32;20081;-70
2021/12/07 00:11:12;;;;;;;7.70;4.30;;;;;;;-4.46;100.00;98519.72;4401212;32;20900;-70
2021/12/07 00:13:39;;;;;;;21.62;8.80;;;;;;;-4.61;100.00;98521.34;4405276;32;20068;-70
2021/12/07 00:16:09;;;;;;;18.58;9.30;;;;;;;-4.57;100.00;98526.12;4404247;32;20039;-71
2021/12/07 00:18:42;;;;;;;24.98;10.38;;;;;;;-4.54;100.00;98527.59;4401772;32;20430;-71
2021/12/07 00:21:08;;;;;;;26.77;10.15;;;;;;;-4.77;100.00;98477.53;4399809;32;20352;-71
2021/12/07 00:23:36;;;;;;;19.83;9.27;;;;;;;-4.64;100.00;98498.03;4406234;32;20340;-70
2021/12/07 00:26:04;;;;;;;20.60;9.40;;;;;;;-4.64;100.00;98526.94;4402576;32;20482;-71
2021/12/07 00:28:31;;;;;;;8.23;4.55;;;;;;;-4.90;100.00;98487.72;4401347;32;20038;-70
2021/12/07 00:31:08;;;;;;;23.48;9.88;;;;;;;-4.69;100.00;98545.00;4402466;32;20051;-69
2021/12/07 00:33:44;;;;;;;23.50;7.50;;;;;;;-4.70;100.00;98535.50;4408140;32;20075;-70
2021/12/07 00:36:11;;;;;;;17.87;9.27;;;;;;;-4.75;100.00;98531.56;4410772;32;20047;-70
2021/12/07 00:38:39;;;;;;;10.43;4.87;;;;;;;-5.06;100.00;98480.66;4412871;32;20054;-69
2021/12/07 00:41:06;;;;;;;16.15;8.18;;;;;;;-4.79;100.00;98540.72;4415245;32;20035;-69
2021/12/07 00:43:33;;;;;;;24.05;8.98;;;;;;;-4.97;100.00;98508.56;4392353;32;20479;-70
2021/12/07 00:46:01;;;;;;;20.73;9.15;;;;;;;-4.85;100.00;98530.91;4409340;32;20060;-69
2021/12/07 00:48:29;;;;;;;19.62;8.85;;;;;;;-4.78;100.00;98547.63;4399935;32;20081;-70
2021/12/07 00:50:57;;;;;;;17.40;7.65;;;;;;;-5.04;100.00;98515.44;4400913;32;20403;-70
2021/12/07 00:53:27;;;;;;;14.82;7.70;;;;;;;-4.76;100.00;98553.53;4411203;32;20078;-70
2021/12/07 00:55:57;;;;;;;14.95;6.62;;;;;;;-4.82;100.00;98550.75;4408825;32;20042;-70
2021/12/07 00:58:25;;;;;;;15.57;7.10;;;;;;;-4.82;100.00;98556.84;4403555;32;20091;-70
2021/12/07 01:00:56;;;;;;;17.73;7.43;;;;;;;-4.89;100.00;98550.56;4417091;32;20043;-70
2021/12/07 01:03:24;;;;;;;11.57;6.68;;;;;;;-4.87;100.00;98553.84;4413019;32;20064;-70
2021/12/07 01:05:54;;;;;;;18.60;7.40;;;;;;;-4.84;100.00;98558.78;4402048;32;20440;-70
2021/12/07 01:08:52;;;;;;;16.95;7.28;;;;;;;-4.92;100.00;98556.97;4409547;32;20058;-70
2021/12/07 01:24:57;;;;;;;15.35;6.32;;;;;;;-4.98;100.00;98560.25;4417109;32;20339;-70
2021/12/07 01:27:27;;;;;;;13.50;6.62;;;;;;;-5.19;100.00;98523.13;4417494;32;20068;-70
2021/12/07 01:30:08;;;;;;;18.70;8.30;;;;;;;-4.92;100.00;98572.72;4416659;32;20111;-70
2021/12/07 01:59:38;;;;;;;18.48;8.70;;;;;;;-5.31;100.00;98522.63;4416288;32;20042;-70
2021/12/07 02:02:08;;;;;;;14.13;6.43;;;;;;;-4.90;100.00;98563.88;4416689;32;20485;-70
2021/12/07 02:04:36;;;;;;;14.52;5.40;;;;;;;-5.15;100.00;98545.47;4416141;32;20047;-70
2021/12/07 02:07:08;;;;;;;17.35;8.23;;;;;;;-5.11;100.00;98563.31;4415151;32;20086;-70
2021/12/07 02:09:38;;;;;;;14.35;5.37;;;;;;;-5.06;100.00;98559.41;4416230;32;20046;-71
2021/12/07 02:12:06;;;;;;;4.12;2.45;;;;;;;-5.49;100.00;98499.09;4416731;32;20053;-70
2021/12/07 02:14:34;;;;;;;16.27;6.05;;;;;;;-5.18;100.00;98541.34;4400956;32;20346;-70
2021/12/07 02:17:05;;;;;;;16.15;7.95;;;;;;;-5.14;100.00;98537.44;4413486;32;20076;-70
2021/12/07 02:19:33;;;;;;;19.63;7.50;;;;;;;-5.42;100.00;98497.50;4416345;32;20076;-70
2021/12/07 02:22:00;;;;;;;15.60;7.00;;;;;;;-5.14;100.00;98532.19;4416060;32;20167;-70
2021/12/07 02:24:27;;;;;;;18.25;7.40;;;;;;;-5.09;100.00;98543.97;4415144;32;20076;-71
2021/12/07 02:26:55;;;;;;;19.75;7.68;;;;;;;-5.40;100.00;98497.34;4414497;32;20046;-71
2021/12/07 02:29:22;;;;;;;22.95;8.75;;;;;;;-5.19;100.00;98550.19;4413872;32;20093;-70
2021/12/07 02:31:51;;;;;;;13.95;6.62;;;;;;;-5.38;100.00;98511.09;4410910;32;20641;-69
2021/12/07 02:34:24;;;;;;;19.25;8.68;;;;;;;-5.06;100.00;98554.16;4416176;32;20042;-70
2021/12/07 02:36:53;;;;;;;9.57;3.58;;;;;;;-5.03;100.00;98559.09;4413190;32;20433;-70
2021/12/07 02:39:33;;;;;;;16.90;7.37;;;;;;;-5.15;100.00;98546.28;4415460;32;20338;-70
2021/12/07 02:42:01;;;;;;;23.45;7.25;;;;;;;-5.14;100.00;98547.94;4416241;32;20436;-70
2021/12/07 02:44:28;;;;;;;24.25;8.57;;;;;;;-5.06;100.00;98535.78;4398745;32;20043;-70
2021/12/07 02:46:55;;;;;;;16.75;7.78;;;;;;;-5.07;100.00;98532.34;4411424;32;20210;-70
2021/12/07 02:49:22;;;;;;;16.23;7.55;;;;;;;-5.12;100.00;98524.13;4415733;32;20122;-71
2021/12/07 02:51:49;;;;;;;22.30;7.97;;;;;;;-5.39;100.00;98496.34;4415694;32;20037;-70
2021/12/07 02:54:17;;;;;;;18.77;8.48;;;;;;;-5.20;100.00;98522.31;4414702;32;20035;-70
2021/12/07 02:56:45;;;;;;;18.45;8.48;;;;;;;-5.05;100.00;98546.13;4413581;32;20442;-70
2021/12/07 02:59:16;;;;;;;18.60;7.97;;;;;;;-5.11;100.00;98536.25;4414630;32;20068;-70
2021/12/07 03:01:48;;;;;;;21.73;8.50;;;;;;;-5.35;100.00;98506.34;4415766;32;20447;-70
2021/12/07 03:04:24;;;;;;;19.42;8.20;;;;;;;-5.02;100.00;98548.44;4414690;32;20055;-70
2021/12/07 03:25:58;;;;;;;21.95;9.40;;;;;;;-4.97;100.00;98537.44;4407489;32;20064;-70
2021/12/07 03:28:25;;;;;;;18.12;9.75;;;;;;;-4.93;100.00;98525.62;4414031;32;20080;-70
2021/12/07 03:30:53;;;;;;;30.23;11.75;;;;;;;-5.02;100.00;98508.22;4410920;32;20035;-70
2021/12/07 03:33:20;;;;;;;32.33;12.07;;;;;;;-4.94;100.00;98531.88;4400533;32;20096;-70
2021/12/07 03:35:47;;;;;;;29.65;11.80;;;;;;;-4.90;100.00;98527.91;4399356;32;20038;-70
2021/12/07 03:38:14;;;;;;;23.48;9.30;;;;;;;-4.88;100.00;98528.59;4415278;32;20120;-70
2021/12/07 03:40:41;;;;;;;29.17;11.43;;;;;;;-4.89;100.00;98521.69;4408555;32;20054;-70
2021/12/07 03:43:08;;;;;;;28.50;11.65;;;;;;;-4.92;100.00;98529.91;4407124;32;20042;-70
2021/12/07 03:45:36;;;;;;;23.50;10.10;;;;;;;-5.21;100.00;98478.66;4406612;32;20433;-69
2021/12/07 03:48:05;;;;;;;29.30;12.45;;;;;;;-5.17;100.00;98474.75;4404862;32;20047;-70
2021/12/07 03:50:32;;;;;;;28.05;10.95;;;;;;;-4.92;100.00;98524.63;4410328;32;20109;-70
2021/12/07 03:52:59;;;;;;;25.27;11.10;;;;;;;-4.92;100.00;98517.56;4399637;32;20051;-69
2021/12/07 03:55:25;;;;;;;37.17;11.82;;;;;;;-4.99;100.00;98507.91;4404959;32;20047;-69
2021/12/07 03:57:52;;;;;;;29.27;10.93;;;;;;;-4.84;100.00;98522.00;4412740;32;20187;-69
2021/12/07 04:00:24;;;;;;;34.45;11.90;;;;;;;-5.23;100.00;98469.28;4400724;32;20522;-70
2021/12/07 04:02:53;;;;;;;39.45;13.15;;;;;;;-4.97;100.00;98516.44;4407835;32;20065;-70
2021/12/07 04:05:22;;;;;;;30.70;11.32;;;;;;;-5.20;100.00;98482.94;4410980;32;20372;-70
2021/12/07 04:07:51;;;;;;;31.05;10.50;;;;;;;-4.92;100.00;98540.41;4407530;32;20576;-70
2021/12/07 04:10:20;;;;;;;38.20;11.90;;;;;;;-4.96;100.00;98544.34;4402914;32;20079;-70
2021/12/07 04:12:46;;;;;;;17.17;7.20;;;;;;;-5.26;100.00;98496.72;4412535;32;20397;-70
2021/12/07 04:15:16;;;;;;;22.70;9.00;;;;;;;-5.02;100.00;98539.75;4408479;32;20086;-69
2021/12/07 04:17:43;;;;;;;28.85;10.13;;;;;;;-5.08;100.00;98545.63;4399212;32;20042;-70
2021/12/07 04:20:12;;;;;;;16.02;7.15;;;;;;;-5.06;100.00;98548.91;4398728;32;20068;-70
2021/12/07 04:22:39;;;;;;;33.30;11.15;;;;;;;-5.09;100.00;98549.22;4405364;32;20097;-70
2021/12/07 04:25:09;;;;;;;30.50;11.18;;;;;;;-5.09;100.00;98554.47;4404687;32;20070;-70
2021/12/07 04:27:38;;;;;;;17.35;8.23;;;;;;;-5.01;100.00;98562.38;4401312;32;20072;-69
2021/12/07 04:30:10;;;;;;;25.70;9.98;;;;;;;-5.05;100.00;98564.50;4407417;32;20046;-70
2021/12/07 04:32:37;;;;;;;14.48;6.18;;;;;;;-5.09;100.00;98554.47;4396558;32;20124;-69
2021/12/07 04:35:05;;;;;;;27.00;12.07;;;;;;;-5.00;100.00;98564.03;4410350;32;20106;-70
2021/12/07 04:37:32;;;;;;;27.67;10.90;;;;;;;-5.01;100.00;98551.88;4402149;32;20073;-70
2021/12/07 04:39:59;;;;;;;29.10;10.43;;;;;;;-4.90;100.00;98554.19;4412643;32;20039;-70
2021/12/07 04:42:26;;;;;;;29.67;10.82;;;;;;;-4.95;100.00;98540.72;4414853;32;20340;-70
2021/12/07 04:44:57;;;;;;;23.35;9.80;;;;;;;-4.93;100.00;98544.00;4402046;32;20819;-70
2021/12/07 04:47:59;;;;;;;13.13;6.27;;;;;;;-4.93;100.00;98549.25;4417414;32;20429;-70
2021/12/07 04:58:14;;;;;;;33.22;11.18;;;;;;;-5.23;100.00;98512.13;4407344;32;20111;-70
2021/12/07 05:00:41;;;;;;;28.20;10.82;;;;;;;-5.18;100.00;98511.66;4415261;32;20072;-70
2021/12/07 05:03:11;;;;;;;25.05;10.15;;;;;;;-5.10;100.00;98522.16;4409366;32;20364;-70
2021/12/07 05:05:44;;;;;;;27.08;10.95;;;;;;;-4.97;100.00;98532.19;4416959;32;20084;-70
2021/12/07 05:08:14;;;;;;;24.52;11.12;;;;;;;-5.09;100.00;98517.72;4406966;32;20158;-70
2021/12/07 05:13:35;;;;;;;29.90;12.02;;;;;;;-4.86;100.00;98555.50;4409817;32;20058;-70
2021/12/07 05:16:24;;;;;;;33.00;13.15;;;;;;;-4.88;100.00;98557.47;4402261;32;20412;-70
2021/12/07 05:19:01;;;;;;;43.85;14.15;;;;;;;-4.84;100.00;98547.47;4391020;32;20047;-70
2021/12/07 05:24:19;;;;;;;39.03;13.10;;;;;;;-4.87;100.00;98547.78;4405670;32;20090;-70
2021/12/07 05:37:51;;;;;;;35.92;13.38;;;;;;;-5.00;100.00;98522.00;4402174;32;20042;-69
2021/12/07 05:40:30;;;;;;;35.10;12.90;;;;;;;-5.03;100.00;98524.97;4407657;32;20046;-69
2021/12/07 05:42:57;;;;;;;34.95;12.43;;;;;;;-5.05;100.00;98524.31;4407733;32;20130;-69
2021/12/07 05:45:31;;;;;;;36.35;13.43;;;;;;;-4.67;100.00;98570.13;4409152;32;20115;-70
2021/12/07 05:48:04;;;;;;;38.13;13.65;;;;;;;-4.66;100.00;98571.78;4407329;32;20060;-70
2021/12/07 05:50:40;;;;;;;43.03;15.32;;;;;;;-5.09;100.00;98530.84;4409059;32;20054;-71
2021/12/07 05:53:09;;;;;;;33.67;13.18;;;;;;;-4.89;100.00;98576.84;4403847;32;20422;-70
2021/12/07 05:55:37;;;;;;;35.25;14.00;;;;;;;-4.84;100.00;98585.06;4409337;32;20042;-70
2021/12/07 05:58:07;;;;;;;37.20;13.88;;;;;;;-4.90;100.00;98572.56;4387208;32;20447;-69
2021/12/07 06:00:36;;;;;;;31.80;13.07;;;;;;;-4.76;100.00;98590.31;4387214;32;20474;-70
2021/12/07 06:03:08;;;;;;;31.05;12.52;;;;;;;-5.04;100.00;98541.69;4401849;32;20068;-69
2021/12/07 06:05:37;;;;;;;40.67;14.23;;;;;;;-4.80;100.00;98573.25;4400550;32;20038;-70
2021/12/07 06:08:05;;;;;;;45.17;16.80;;;;;;;-4.76;100.00;98564.03;4412581;32;20073;-70
2021/12/07 06:10:32;;;;;;;38.72;12.95;;;;;;;-4.63;100.00;98576.69;4404029;32;20033;-71
2021/12/07 06:12:59;;;;;;;32.85;13.55;;;;;;;-4.53;100.00;98581.81;4408435;32;21510;-69
2021/12/07 06:15:27;;;;;;;30.02;12.73;;;;;;;-4.61;100.00;98568.66;4402522;32;20035;-70
2021/12/07 06:17:54;;;;;;;32.35;11.95;;;;;;;-4.72;100.00;98566.34;4395586;32;20199;-69
2021/12/07 06:20:21;;;;;;;36.03;12.68;;;;;;;-4.69;100.00;98573.91;4408885;32;20043;-69
2021/12/07 06:22:48;;;;;;;42.00;14.55;;;;;;;-4.97;100.00;98533.00;4388545;32;20075;-70
2021/12/07 06:25:15;;;;;;;40.80;15.18;;;;;;;-4.73;100.00;98548.97;4396432;32;20053;-69
2021/12/07 06:27:42;;;;;;;35.92;14.20;;;;;;;-4.96;100.00;98534.66;4404355;32;20082;-70
2021/12/07 06:30:11;;;;;;;41.75;15.40;;;;;;;-5.02;100.00;98511.66;4397643;32;20039;-70
2021/12/07 06:32:38;;;;;;;36.72;13.48;;;;;;;-4.56;100.00;98582.16;4404242;32;20065;-70
2021/12/07 06:35:06;;;;;;;39.10;15.63;;;;;;;-4.58;100.00;98578.84;4408103;32;20042;-69
2021/12/07 06:37:33;;;;;;;41.00;14.48;;;;;;;-4.61;100.00;98580.00;4405145;32;20313;-70
2021/12/07 06:40:00;;;;;;;32.72;13.35;;;;;;;-4.64;100.00;98568.97;4407847;32;20068;-70
2021/12/07 06:42:26;;;;;;;34.70;13.85;;;;;;;-4.51;100.00;98579.84;4406615;32;20139;-69
2021/12/07 06:44:53;;;;;;;30.42;11.38;;;;;;;-4.53;100.00;98587.06;4413187;32;20043;-68
2021/12/07 06:47:19;;;;;;;34.85;14.23;;;;;;;-4.59;100.00;98577.22;4415976;32;20425;-69
2021/12/07 06:49:48;;;;;;;34.40;12.27;;;;;;;-4.91;100.00;98536.81;4405342;32;20030;-69
2021/12/07 06:52:15;;;;;;;22.05;9.52;;;;;;;-4.63;100.00;98591.66;4410932;32;20156;-69
2021/12/07 06:54:41;;;;;;;26.90;10.50;;;;;;;-4.84;100.00;98553.53;4411884;32;20076;-68
2021/12/07 06:57:08;;;;;;;27.27;10.25;;;;;;;-4.61;100.00;98589.66;4404368;32;20064;-69
2021/12/07 06:59:35;;;;;;;31.48;10.27;;;;;;;-4.62;100.00;98594.12;4400721;32;20417;-69
2021/12/07 07:02:01;;;;;;;31.12;12.10;;;;;;;-4.90;100.00;98548.94;4407523;32;20069;-69
2021/12/07 07:04:28;;;;;;;32.97;12.55;;;;;;;-4.67;100.00;98601.66;4395300;32;20045;-68
2021/12/07 07:06:55;;;;;;;32.92;11.98;;;;;;;-4.65;100.00;98598.87;4386821;32;20067;-68
2021/12/07 07:09:22;;;;;;;31.67;12.60;;;;;;;-4.60;100.00;98601.84;4400869;32;20051;-68
2021/12/07 07:11:49;;;;;;;28.12;11.20;;;;;;;-4.93;100.00;98559.75;4403175;32;20060;-69
2021/12/07 07:14:16;;;;;;;26.15;11.00;;;;;;;-4.71;100.00;98595.09;4411702;32;20035;-68
2021/12/07 07:16:42;;;;;;;30.12;12.18;;;;;;;-4.61;100.00;98615.94;4415204;32;20371;-69
2021/12/07 07:19:09;;;;;;;26.67;10.88;;;;;;;-4.63;100.00;98612.66;4414647;32;20051;-68
2021/12/07 07:21:36;;;;;;;30.20;12.15;;;;;;;-4.68;100.00;98618.41;4400742;32;20050;-68
2021/12/07 07:24:03;;;;;;;26.73;11.63;;;;;;;-4.66;100.00;98610.38;4411647;32;20039;-69
2021/12/07 07:26:30;;;;;;;31.12;11.38;;;;;;;-4.56;100.00;98613.69;4398992;32;20030;-69
2021/12/07 07:28:57;;;;;;;26.90;9.90;;;;;;;-4.59;100.00;98614.00;4408057;32;20072;-69
2021/12/07 07:31:25;;;;;;;34.05;12.15;;;;;;;-4.64;100.00;98613.63;4408647;32;20072;-68
2021/12/07 07:33:53;;;;;;;34.80;11.68;;;;;;;-4.95;100.00;98551.22;4398504;32;20030;-69
2021/12/07 07:36:19;;;;;;;37.90;12.05;;;;;;;-4.66;100.00;98621.72;4402120;32;20030;-69
2021/12/07 07:38:46;;;;;;;30.98;10.93;;;;;;;-4.93;100.00;98583.37;4401832;32;20035;-69
2021/12/07 07:41:12;;;;;;;35.58;12.32;;;;;;;-4.61;100.00;98626.44;4405278;32;20799;-69
2021/12/07 07:43:39;;;;;;;34.80;12.55;;;;;;;-4.81;100.00;98579.47;4400041;32;20341;-70
2021/12/07 07:46:06;;;;;;;36.53;13.60;;;;;;;-4.56;100.00;98634.69;4400315;32;20442;-69
2021/12/07 07:48:33;;;;;;;38.67;14.35;;;;;;;-4.60;100.00;98638.63;4399886;32;20053;-69
2021/12/07 07:51:01;;;;;;;39.13;14.75;;;;;;;-4.59;100.00;98635.03;4399362;32;20458;-70
2021/12/07 07:53:27;;;;;;;37.25;13.75;;;;;;;-4.65;100.00;98640.91;4401483;32;20043;-69
2021/12/07 07:55:55;;;;;;;34.67;14.13;;;;;;;-4.65;100.00;98640.91;4386517;32;20088;-70
2021/12/07 07:58:22;;;;;;;41.13;16.10;;;;;;;-4.72;100.00;98646.00;4400360;32;20077;-69
2021/12/07 08:00:49;;;;;;;35.92;13.00;;;;;;;-4.67;100.00;98648.16;4407852;32;20060;-70
2021/12/07 08:03:16;;;;;;;32.80;12.57;;;;;;;-4.96;100.00;98591.63;4401476;32;20854;-70
2021/12/07 08:05:43;;;;;;;34.70;12.88;;;;;;;-4.67;100.00;98643.72;4400509;32;20026;-70
2021/12/07 08:08:10;;;;;;;33.50;13.23;;;;;;;-4.54;100.00;98651.13;4401716;32;20424;-69
2021/12/07 08:10:37;;;;;;;34.70;12.40;;;;;;;-4.95;100.00;98614.25;4400541;32;20383;-70
2021/12/07 08:13:06;;;;;;;38.83;14.55;;;;;;;-4.61;100.00;98647.47;4405479;32;20192;-70
2021/12/07 08:15:38;;;;;;;34.03;13.50;;;;;;;-4.62;100.00;98643.22;4416464;32;20029;-70
2021/12/07 08:18:05;;;;;;;;;;;;;;;-4.45;100.00;98662.44;4418049;32;20070;-69
2021/12/07 08:20:32;;;;;;;19.55;8.93;;;;;;;-4.35;100.00;98657.06;4417236;32;19953;-69
2021/12/07 08:23:03;;;;;;;34.75;12.37;;;;;;;-4.83;100.00;98610.34;4416489;32;20057;-69
2021/12/07 08:25:32;;;;;;;;;;;;;;;-4.69;100.00;98652.72;4417050;32;20165;-69
2021/12/07 08:27:58;;;;;;;32.50;12.50;;;;;;;-4.71;100.00;98655.50;4415480;32;19947;-69
2021/12/07 08:30:25;;;;;;;32.58;13.48;;;;;;;-5.26;100.00;98578.06;4415258;32;20160;-69
2021/12/07 08:32:53;;;;;;;31.45;11.00;;;;;;;-4.76;100.00;98644.66;4400927;32;20030;-69
2021/12/07 08:35:21;;;;;;;27.55;11.00;;;;;;;-4.47;100.00;98665.22;4388589;32;20939;-69
2021/12/07 08:37:48;;;;;;;27.58;10.32;;;;;;;-4.24;100.00;98677.78;4402809;32;20043;-69
2021/12/07 08:40:21;;;;;;;25.95;9.77;;;;;;;-4.16;100.00;98677.78;4402633;32;20419;-70
2021/12/07 08:42:49;;;;;;;30.00;12.45;;;;;;;-4.18;100.00;98674.47;4410153;32;20436;-70
2021/12/07 08:45:16;;;;;;;28.05;10.40;;;;;;;-4.24;100.00;98685.66;4402369;32;20473;-70
2021/12/07 08:47:43;;;;;;;28.08;10.35;;;;;;;-4.31;100.00;98674.13;4418100;32;20034;-69
2021/12/07 08:50:20;;;;;;;29.90;11.80;;;;;;;-4.30;100.00;98691.56;4417733;32;20412;-69
2021/12/07 08:52:49;;;;;;;32.55;12.85;;;;;;;-4.22;100.00;98699.44;4404478;32;20039;-69
2021/12/07 09:00:41;;;;;;;34.97;12.45;;;;;;;-4.12;100.00;98694.84;4417571;32;20030;-69
2021/12/07 09:03:08;;;;;;;33.60;14.60;;;;;;;-4.04;100.00;98687.00;4416565;32;20048;-70
2021/12/07 09:05:36;;;;;;;27.30;10.63;;;;;;;-3.92;100.00;98699.81;4410509;32;20080;-70
2021/12/07 09:08:03;;;;;;;35.08;12.98;;;;;;;-3.89;100.00;98688.97;4403353;32;20057;-70
2021/12/07 09:10:29;;;;;;;26.52;13.02;;;;;;;-3.82;100.00;98695.19;4400350;32;20332;-70
2021/12/07 09:12:55;;;;;;;25.52;11.52;;;;;;;-3.77;100.00;98692.06;4400175;32;20377;-70
2021/12/07 09:15:22;;;;;;;27.98;12.60;;;;;;;-3.84;100.00;98686.66;4401927;32;20054;-70
2021/12/07 09:17:49;;;;;;;28.35;11.65;;;;;;;-3.95;100.00;98692.25;4401967;32;20031;-70
2021/12/07 09:20:16;;;;;;;32.70;11.57;;;;;;;-3.95;100.00;98697.50;4402125;32;20411;-70
2021/12/07 09:22:45;;;;;;;31.67;11.10;;;;;;;-3.93;100.00;98687.63;4409879;32;20043;-70
2021/12/07 09:25:12;;;;;;;29.77;11.90;;;;;;;-3.95;100.00;98689.63;4401669;32;20388;-70
2021/12/07 09:27:45;;;;;;;34.20;14.00;;;;;;;-3.88;100.00;98690.59;4415771;32;20488;-69
2021/12/07 09:30:17;;;;;;;32.13;12.30;;;;;;;-3.77;100.00;98690.25;4407881;32;20064;-70
2021/12/07 09:32:47;;;;;;;27.23;10.75;;;;;;;-3.90;100.00;98645.22;4406226;32;20022;-69
2021/12/07 09:35:21;;;;;;;28.98;11.12;;;;;;;-3.62;100.00;98690.41;4389998;32;20061;-69
2021/12/07 09:37:51;;;;;;;22.05;10.50;;;;;;;-3.55;100.00;98691.38;4390157;32;20424;-70
2021/12/07 09:40:23;;;;;;;23.98;9.57;;;;;;;-3.78;100.00;98646.53;4407803;32;20212;-70
2021/12/07 09:42:51;;;;;;;23.05;9.68;;;;;;;-3.59;100.00;98673.44;4406010;32;20027;-70
2021/12/07 09:45:19;;;;;;;31.40;11.77;;;;;;;-3.81;100.00;98641.59;4401555;32;20478;-78
2021/12/07 09:47:47;;;;;;;35.67;12.82;;;;;;;-3.46;100.00;98702.72;4405417;32;20104;-74
2021/12/07 09:50:19;;;;;;;27.17;11.07;;;;;;;-3.39;100.00;98692.34;4415083;32;20039;-72
2021/12/07 09:52:48;;;;;;;22.25;10.93;;;;;;;-3.42;100.00;98684.78;4406320;32;20065;-72
2021/12/07 09:55:16;;;;;;;29.10;11.85;;;;;;;-3.36;100.00;98679.66;4387745;32;20073;-73
2021/12/07 09:57:42;;;;;;;23.38;10.30;;;;;;;-3.60;100.00;98629.72;4388412;32;20065;-71
2021/12/07 10:00:12;;;;;;;23.17;9.30;;;;;;;-3.54;100.00;98676.38;4403222;32;20072;-72
2021/12/07 10:02:38;;;;;;;27.80;10.15;;;;;;;-3.59;100.00;98676.06;4407524;32;20379;-72
2021/12/07 10:05:06;;;;;;;24.48;9.82;;;;;;;-3.58;100.00;98675.09;4409343;32;20097;-72
2021/12/07 10:07:33;;;;;;;24.08;11.48;;;;;;;-3.70;100.00;98661.44;4403578;32;20400;-72
2021/12/07 10:09:59;;;;;;;32.15;10.80;;;;;;;-3.69;100.00;98669.19;4402687;32;20474;-70
2021/12/07 10:12:28;;;;;;;21.23;9.18;;;;;;;-3.70;100.00;98654.41;4408712;32;20042;-71
2021/12/07 10:14:55;;;;;;;29.98;10.32;;;;;;;-3.73;100.00;98677.59;4401093;32;20112;-74
2021/12/07 10:17:23;;;;;;;22.20;9.80;;;;;;;-3.98;100.00;98666.28;4401670;32;20084;-78
2021/12/07 10:19:50;;;;;;;24.27;10.32;;;;;;;-4.43;100.00;98605.31;4387898;32;20035;-72
2021/12/07 10:22:21;;;;;;;27.77;11.25;;;;;;;-3.95;100.00;98684.34;4403009;32;20043;-72
2021/12/07 10:24:55;;;;;;;24.60;9.02;;;;;;;-3.89;100.00;98679.25;4399695;32;20035;-72
2021/12/07 10:27:33;;;;;;;28.20;9.63;;;;;;;-4.01;100.00;98670.84;4401376;32;20068;-72
2021/12/07 10:30:08;;;;;;;23.12;11.55;;;;;;;-3.92;100.00;98681.41;4399428;32;20203;-72
2021/12/07 10:32:40;;;;;;;22.75;8.90;;;;;;;-3.85;100.00;98669.22;4387509;32;20094;-73
2021/12/07 10:35:36;;;;;;;28.02;11.73;;;;;;;-3.94;100.00;98646.53;4401217;32;20039;-72
2021/12/07 10:38:14;;;;;;;27.15;9.98;;;;;;;-3.57;100.00;98679.38;4400393;32;20131;-73
2021/12/07 10:40:59;;;;;;;28.08;10.73;;;;;;;-3.82;100.00;98671.50;4400665;32;20065;-74
2021/12/07 10:43:45;;;;;;;24.05;9.55;;;;;;;-3.76;100.00;98678.75;4397416;32;20072;-73
2021/12/07 10:46:52;;;;;;;27.45;11.25;;;;;;;-3.75;100.00;98680.41;4401184;32;20075;-73
2021/12/07 10:49:39;;;;;;;24.70;11.40;;;;;;;-3.84;100.00;98671.66;4370614;32;20445;-73
2021/12/07 10:52:28;;;;;;;21.17;10.00;;;;;;;-3.78;100.00;98674.63;4400632;32;20104;-73
2021/12/07 10:55:04;;;;;;;30.45;11.23;;;;;;;-3.69;100.00;98669.19;4409965;32;20101;-73
2021/12/07 10:57:42;;;;;;;28.08;11.45;;;;;;;-3.76;100.00;98668.22;4400621;32;20068;-73
2021/12/07 11:00:23;;;;;;;27.42;10.30;;;;;;;-3.91;100.00;98677.75;4413939;32;20085;-72
2021/12/07 11:02:58;;;;;;;21.87;9.10;;;;;;;-3.98;100.00;98672.34;4415785;32;20035;-73
2021/12/07 11:05:50;;;;;;;15.93;8.18;;;;;;;-3.92;100.00;98684.03;4399794;32;20038;-73
2021/12/07 11:08:25;;;;;;;28.73;11.32;;;;;;;-3.89;100.00;98683.69;4416017;32;20038;-73
2021/12/07 11:10:52;;;;;;;26.98;9.68;;;;;;;-3.90;100.00;98687.31;4401801;32;20046;-73
2021/12/07 11:13:27;;;;;;;19.52;9.57;;;;;;;-3.84;100.00;98687.47;4413329;32;20045;-73
2021/12/07 11:15:56;;;;;;;18.42;9.02;;;;;;;-3.94;100.00;98675.44;4415508;32;20054;-73
2021/12/07 11:18:24;;;;;;;21.87;8.50;;;;;;;-4.03;100.00;98672.84;4414957;32;20038;-72
2021/12/07 11:20:59;;;;;;;24.50;7.90;;;;;;;-3.94;100.00;98675.44;4391921;32;20146;-73
2021/12/07 11:23:30;;;;;;;24.23;8.15;;;;;;;-3.94;100.00;98673.66;4383604;32;20433;-73
2021/12/07 11:31:38;;;;;;;24.00;11.48;;;;;;;-4.04;100.00;98676.47;4400378;32;20076;-73
2021/12/07 11:34:17;;;;;;;27.77;12.18;;;;;;;-4.09;100.00;98668.22;4400418;32;20043;-73
2021/12/07 11:36:47;;;;;;;29.02;10.38;;;;;;;-4.07;100.00;98671.53;4399995;32;20051;-73
2021/12/07 11:39:27;;;;;;;24.85;10.60;;;;;;;-4.00;100.00;98676.94;4399135;32;20406;-72
2021/12/07 11:42:03;;;;;;;24.98;9.05;;;;;;;-4.39;100.00;98615.34;4386270;32;20035;-74
2021/12/07 11:44:34;;;;;;;23.52;9.70;;;;;;;-4.07;100.00;98662.81;4399699;32;20812;-70
2021/12/07 11:47:04;;;;;;;33.00;12.47;;;;;;;-3.98;100.00;98668.91;4404286;32;20065;-69
2021/12/07 11:49:38;;;;;;;28.50;10.75;;;;;;;-3.85;100.00;98674.47;4407769;32;20046;-70
2021/12/07 11:52:11;;;;;;;29.77;11.80;;;;;;;-3.85;100.00;98656.06;4409224;32;20064;-70
2021/12/07 11:54:41;;;;;;;23.83;11.00;;;;;;;-3.90;100.00;98645.22;4399698;32;20057;-70
2021/12/07 11:57:12;;;;;;;29.92;12.77;;;;;;;-4.06;100.00;98628.44;4399647;32;20047;-71
2021/12/07 11:59:40;;;;;;;32.42;12.10;;;;;;;-3.69;100.00;98679.69;4398738;32;20042;-71
2021/12/07 12:02:07;;;;;;;25.45;11.60;;;;;;;-3.70;100.00;98682.50;4398252;32;20069;-71
2021/12/07 12:04:34;;;;;;;25.42;10.20;;;;;;;-3.82;100.00;98642.56;4400089;32;20751;-70
2021/12/07 12:07:03;;;;;;;32.85;12.95;;;;;;;-3.58;100.00;98683.00;4400151;32;20068;-71
2021/12/07 12:09:30;;;;;;;24.95;11.68;;;;;;;-3.80;100.00;98630.06;4399641;32;20474;-71
2021/12/07 12:12:09;;;;;;;33.45;11.43;;;;;;;-3.50;100.00;98672.44;4399138;32;20089;-70
2021/12/07 12:14:46;;;;;;;22.62;9.15;;;;;;;-3.51;100.00;98682.16;4397863;32;20425;-71
2021/12/07 12:17:45;;;;;;;32.13;12.15;;;;;;;-3.68;100.00;98686.62;4400038;32;20043;-70
2021/12/07 12:20:43;;;;;;;27.08;10.85;;;;;;;-3.65;100.00;98673.13;4386063;32;20470;-71
2021/12/07 12:23:10;;;;;;;25.55;11.10;;;;;;;-3.92;100.00;98631.41;4405823;32;20431;-71
2021/12/07 12:25:37;;;;;;;32.50;12.73;;;;;;;-3.58;100.00;98683.00;4405548;32;20128;-70
2021/12/07 12:28:03;;;;;;;27.20;11.75;;;;;;;-3.59;100.00;98683.97;4399964;32;20064;-70
2021/12/07 12:30:37;;;;;;;35.22;12.13;;;;;;;-3.63;100.00;98672.16;4399089;32;20038;-70
2021/12/07 12:33:08;;;;;;;32.08;13.15;;;;;;;-3.69;100.00;98678.91;4397670;32;20043;-70
2021/12/07 12:35:42;;;;;;;28.15;11.82;;;;;;;-4.18;100.00;98632.38;4399429;32;20708;-70
2021/12/07 12:38:25;;;;;;;29.75;12.00;;;;;;;-3.93;100.00;98677.09;4401919;32;20060;-70
2021/12/07 12:41:02;;;;;;;26.10;12.02;;;;;;;-3.79;100.00;98684.34;4400764;32;20047;-71
2021/12/07 12:43:35;;;;;;;38.20;11.50;;;;;;;-3.92;100.00;98673.50;4399553;32;20072;-71
2021/12/07 12:46:03;;;;;;;30.95;11.68;;;;;;;-3.96;100.00;98672.19;4404369;32;20406;-70
2021/12/07 12:48:32;;;;;;;34.90;13.57;;;;;;;-4.21;100.00;98627.50;4404175;32;20064;-70
2021/12/07 12:50:59;;;;;;;45.85;13.23;;;;;;;-3.99;100.00;98683.03;4405191;32;20073;-71
2021/12/07 12:53:32;;;;;;;30.27;11.57;;;;;;;-4.06;100.00;98678.41;4389268;32;20080;-69
2021/12/07 12:56:02;;;;;;;33.83;12.75;;;;;;;-3.95;100.00;98679.91;4403578;32;20739;-70
2021/12/07 12:58:30;;;;;;;35.67;14.82;;;;;;;-3.95;100.00;98665.94;4402039;32;20065;-70
2021/12/07 13:00:58;;;;;;;26.58;11.77;;;;;;;-3.97;100.00;98679.25;4388635;32;20055;-73